Sparrevohn Lrrs Airport
PASV : now visible

Airfield :











YOU CAN JOIN US ON...

 
LOGIN :

Register | Disclaimer

   EN    FR    IT 

 









Legend :    VFR   Marginal VFR   IFR   Intensive IFR   Very Intensive IFR
Visi :
Ceiling :
>= 8 km
>= 3000ft
5 to 8 km
1000 to 3000 ft
1500m to 5 km
500 to 1000 ft
800 to 1500m
200 to 500 ft
< 800m
< 200 ft
Symbols :   Thunderstorms  Fog  Heavy snow  Heavy precipitations  Wind > 20 kt






- Airport Elevation : 1585 ft
- IATA code : SVW


PASV - Sparrevohn Lrrs

CURRENT METAR :
  • 261455Z AUTO VRB04KT 1 3/4SM -SN OVC013 M02/M02 A2929 RMK AO2 SNB1355 SLP939 P0003 60006 T10191019 52017

EXPIRED METARs :
  • 261434Z AUTO 30007KT 2 1/2SM -SN OVC012 M02/M02 A2929 RMK AO2 SLP937 $
  • 261355Z AUTO VRB03KT 1 3/4SM -SN OVC011 M02/M02 A2928 RMK AO2 SNB1155 SLP934 P0001 T10191019 $
  • 261334Z AUTO 32010KT 280V350 2SM -SN OVC009 M02/M02 A2927 RMK AO2 SLP932 $
  • 261314Z AUTO 33013G17KT 300V360 1 1/2SM -SN OVC009 M02/M02 A2926 RMK AO2 SLP929 $

Expired Forecast.
PAZA FIR / North America



MET'MAP, your aeronautical weather chart ! - Copyright ORBIFLY December 2007 - Disclaimer

ORBIFLY MET'MAP TEAM :

Programming & Development : Alexandra Zaïnal
Concept & original design : Baudouin d'Aumeries
Assistance for programming : Marc-Olivier Méhu
Technical & hardware support : Manuel Goepfert

Contact : metmap@orbifly.com




SOURCES & CREDITS :

   NOAA       Earth
Advisory